• Join FlightAware (Why Join?)
  • Login
  • US Flag 
06:06AM EDT


 

Airport Tracker/Info


-or-


 

Live Flight TrackerFlight Track Log ✈ HPK1984 ✈ 27-Jul-2013 ✈ KBTV - KHPN

Flight Track Log - Related Links

Times and Time Zones

All times are in EDT time to prevent confusion due to time zone crossing. See the HPK1984 flight status page for this flight to view local times or setup timezone preferences in your user account.

Time Position Orientation Groundspeed Altitude Reporting Facility
EDT Latitude Longitude Course Direction KTS MPH feet Rate Location/Type
12:41PM 44.0611 -73.1767 188° South 165 190 8,500  Level Boston Center
12:42PM 44.0067 -73.1878 188° South 170 196 8,500  Level Boston Center
12:43PM 43.9714 -73.1931 186° South 170 196 8,500  Level Boston Center
12:44PM 43.9211 -73.2039 189° South 165 190 8,500  Level Boston Center
12:45PM 43.8775 -73.2119 188° South 160 184 8,500  Level Boston Center
12:46PM 43.8336 -73.2200 188° South 160 184 8,500  Level Boston Center
12:47PM 43.7897 -73.2281 188° South 160 184 8,500  Level Boston Center
12:48PM 43.7461 -73.2361 188° South 160 184 8,500  Level Boston Center
12:49PM 43.7022 -73.2442 188° South 160 184 8,500  Level Boston Center
12:50PM 43.6439 -73.2519 186° South 160 184 8,500  Level Boston Center
12:51PM 43.6019 -73.2600 188° South 160 184 8,500  Level Boston Center
12:52PM 43.5625 -73.2681 188° South 156 180 8,500  Level Boston Center
12:52PM 43.5353 -73.2733 188° South 156 180 8,500  Level Boston Center
12:53PM 43.5144 -73.2731 179° South 160 184 8,500  Level Boston Center
12:53PM 43.4914 -73.2844 200° South 161 185 8,500  Level Boston Center
12:54PM 43.4475 -73.2894 185° South 162 186 8,500  Level Boston Center
12:56PM 43.3956 -73.2972 186° South 161 185 8,500  Level Boston Center
12:57PM 43.3536 -73.3081 191° South 161 185 8,500  Level Boston Center
12:58PM 43.3097 -73.3161 188° South 161 185 8,500  Level Boston Center
12:59PM 43.2639 -73.3239 187° South 161 185 8,500  Level Boston Center
01:00PM 43.2181 -73.3347 190° South 162 186 8,500  Level Boston Center
01:01PM 43.1722 -73.3397 185° South 162 186 8,500  Level Boston Center
01:02PM 43.1261 -73.3475 187° South 161 185 8,500  Level Boston Center
01:03PM 43.0825 -73.3553 187° South 162 186 8,500  Level Boston Center
01:04PM 43.0428 -73.3661 191° South 162 186 8,500  Level Boston Center
01:05PM 42.9864 -73.3739 186° South 160 184 8,500  Level Boston Center
01:06PM 42.9425 -73.3817 187° South 161 185 8,500  Level Boston Center
01:07PM 42.8986 -73.3894 187° South 160 184 8,500  Level Boston Center
01:08PM 42.8569 -73.4003 191° South 160 184 8,500  Level Boston Center
01:09PM 42.8131 -73.4081 187° South 161 185 8,500  Level Boston Center
01:10PM 42.7692 -73.4131 185° South 161 185 8,500  Level Boston Center
01:11PM 42.7192 -73.4236 189° South 160 184 8,500  Level Boston Center
01:12PM 42.6753 -73.4314 187° South 160 184 8,500  Level Boston Center
01:13PM 42.6294 -73.4361 184° South 160 184 8,500  Level Boston Center
01:14PM 42.5919 -73.4469 192° South 161 185 8,500  Level Boston Center
01:15PM 42.5439 -73.4547 187° South 161 185 8,500  Level Boston Center
01:16PM 42.4917 -73.4622 186° South 162 186 8,500  Level Boston Center
01:17PM 42.4436 -73.4725 189° South 163 188 8,500  Level Boston Center
01:18PM 42.4081 -73.4778 186° South 161 185 8,500  Level Boston Center
01:19PM 42.3497 -73.4850 185° South 176 203 8,500  Level Boston Center
01:20PM 42.3058 -73.4983 193° South 181 208 8,500  Level Boston Center
01:21PM 42.2619 -73.5061 187° South 176 203 8,500  Level Boston Center
01:22PM 42.2161 -73.5136 187° South 176 203 8,500  Level Boston Center
01:23PM 42.1703 -73.5214 187° South 171 197 8,500  Level Boston Center
01:24PM 42.1242 -73.5289 187° South 171 197 8,500  Level Boston Center
01:25PM 42.0803 -73.5367 187° South 171 197 8,500  Level Boston Center
01:26PM 42.0344 -73.5442 187° South 166 191 8,500  Level Boston Center
01:27PM 41.9822 -73.5517 186° South 166 191 8,500  Level Boston Center
01:28PM 41.9364 -73.5619 189° South 161 185 8,500  Level Boston Center
01:29PM 41.8903 -73.5694 187° South 161 185 8,500  Level Boston Center
01:30PM 41.8569 -73.5744 186° South 161 185 8,500 -60 Level Boston Center
01:31PM 41.8006 -73.5819 186° South 161 185 8,400 -300 Descending Boston Center
01:32PM 41.7547 -73.5922 189° South 161 185 8,000 -540 Descending Boston Center
01:33PM 41.7067 -73.6053 191° South 166 191 7,400 -540 Descending Boston Center
01:36PM 41.6000 -73.6667 203° Southwest 177 204 6,300 -540 Descending New York TRACON
01:37PM 41.5667 -73.7000 217° Southwest 174 200 5,800 -540 Descending New York TRACON
01:38PM 41.5167 -73.7333 207° Southwest 163 188 5,300 -540 Descending New York TRACON
01:39PM 41.4833 -73.7500 201° Southwest 165 190 4,800 -540 Descending New York TRACON
01:40PM 41.4500 -73.7667 201° Southwest 167 192 4,300 -540 Descending New York TRACON
01:40PM 41.4000 -73.7667 180° South 161 185 3,800 -480 Descending New York TRACON
01:41PM 41.3500 -73.7500 166° South 152 175 3,500 -180 Descending New York TRACON
01:42PM 41.3167 -73.7500 180° South 153 176 3,500  Level New York TRACON
01:43PM 41.2667 -73.7500 180° South 150 173 3,500 -180 Level New York TRACON
01:44PM 41.2333 -73.7500 180° South 153 176 3,200 -480 Descending New York TRACON
01:45PM 41.1833 -73.7667 194° South 152 175 2,600 -540 Descending New York TRACON
01:46PM 41.1500 -73.7667 180° South 140 161 2,100 -540 Descending New York TRACON
01:47PM 41.1167 -73.7500 159° South 129 148 1,600 -600 Descending New York TRACON
01:48PM 41.0833 -73.7333 159° South 98 113 900 -720 Descending New York TRACON
01:50PM 41.0667 -73.7000 180° South  Level FlightAware Approximate
01:57PM 41.0669 -73.7076 180° South  Level Estimated
01:58PM 41.0667 -73.7000 180° South  Level FlightAware Approximate
01:59PM 41.0669 -73.7076 180° South  Level Estimated